• Join FlightAware (Why Join?)
  • Login
  • US Flag 
07:32AM EST


 

Airport Tracker/Info


-or-


 

Live Flight TrackerFlight Track Log ✈ SWA2166 ✈ 28-Jul-2014 ✈ KSNA - KPHX

Flight Track Log - Related Links

Times and Time Zones

All times are in EDT time to prevent confusion due to time zone crossing. See the SWA2166 flight status page for this flight to view local times or setup timezone preferences in your user account.

Time Position Orientation Groundspeed Altitude Reporting Facility
EDT Latitude Longitude Course Direction KTS MPH feet Rate Location/Type
11:08PM 33.6531 -117.8828 193° South 155 178 1,400  Level Los Angeles Center
11:09PM 33.6106 -117.8947 193° South 155 178 2,800 1,920 Climbing Los Angeles Center
11:10PM 33.5428 -117.8811 170° South 220 253 5,400 3,060 Climbing Los Angeles Center
11:11PM 33.5072 -117.8203 125° Southeast 244 281 9,200 2,880 Climbing Los Angeles Center
11:12PM 33.5269 -117.7347 75° East 263 303 11,400 2,460 Climbing Los Angeles Center
11:13PM 33.5519 -117.6236 75° East 347 399 14,300 3,000 Climbing Los Angeles Center
11:14PM 33.5789 -117.5058 75° East 364 419 17,600 2,940 Climbing Los Angeles Center
11:15PM 33.5889 -117.3792 85° East 380 437 20,400 2,580 Climbing Los Angeles Center
11:16PM 33.5908 -117.2475 89° East 391 450 22,900 1,260 Climbing Los Angeles Center
11:17PM 33.5989 -117.0853 87° East 418 481 23,000 1,140 Climbing Los Angeles Center
11:18PM 33.6039 -116.9406 88° East 419 482 25,300 2,040 Climbing Los Angeles Center
11:19PM 33.6078 -116.7983 88° East 429 494 27,200 1,980 Climbing Los Angeles Center
11:20PM 33.6136 -116.6439 87° East 455 524 29,400 2,280 Climbing Los Angeles Center
11:21PM 33.6178 -116.4894 88° East 460 529 32,000 1,740 Climbing Los Angeles Center
11:22PM 33.6228 -116.3428 88° East 453 521 33,000 480 Climbing Los Angeles Center
11:23PM 33.6281 -116.1947 88° East 447 514 33,000  Level Los Angeles Center
11:25PM 33.6267 -116.0439 91° East 447 514 33,000  Level Los Angeles Center
11:26PM 33.6161 -115.8678 94° East 444 511 33,000  Level Los Angeles Center
11:27PM 33.6028 -115.7222 96° East 439 505 33,000  Level Los Angeles Center
11:28PM 33.5908 -115.5747 96° East 440 506 33,000  Level Los Angeles Center
11:29PM 33.5794 -115.4286 95° East 440 506 33,000  Level Los Angeles Center
11:30PM 33.5675 -115.2806 95° East 443 510 33,000  Level Los Angeles Center
11:31PM 33.5539 -115.1339 96° East 443 510 33,000  Level Los Angeles Center
11:32PM 33.5425 -114.9856 95° East 444 511 33,000  Level Los Angeles Center
11:33PM 33.5275 -114.8369 97° East 448 516 33,000  Level Los Angeles Center
11:34PM 33.5133 -114.6606 95° East 448 516 33,000 -60 Level Los Angeles Center
11:35PM 33.5003 -114.5133 96° East 448 516 32,900 -1,380 Descending Los Angeles Center
11:36PM 33.4878 -114.3689 96° East 440 506 30,200 -2,820 Descending Los Angeles Center
11:37PM 33.4731 -114.2214 97° East 445 512 27,200 -2,520 Descending Los Angeles Center
11:38PM 33.4594 -114.0731 96° East 447 514 25,000 -1,080 Descending Los Angeles Center
11:39PM 33.4331 -113.9367 103° East 426 490 25,000  Level Los Angeles Center
11:40PM 33.4061 -113.7986 103° East 427 491 25,000 -60 Level Los Angeles Center
11:41PM 33.3736 -113.6353 103° East 422 486 24,900 -1,260 Descending Los Angeles Center
11:42PM 33.3442 -113.4989 104° East 416 479 22,500 -1,560 Descending Los Angeles Center
11:43PM 33.3178 -113.3686 104° East 404 465 21,800 -1,440 Descending Los Angeles Center
11:44PM 33.2919 -113.2394 103° East 401 461 19,600 -2,220 Descending Los Angeles Center
11:45PM 33.2731 -113.1189 101° East 378 435 17,300 -1,260 Descending Los Angeles Center
11:46PM 33.2833 -112.9833 85° East 367 422 17,000 -240 Descending Phoenix TRACON
11:47PM 33.2833 -112.9167 90° East 362 417 17,000 -720 Level Phoenix TRACON
11:48PM 33.2833 -112.8000 90° East 346 398 16,000 -540 Descending Phoenix TRACON
11:49PM 33.2811 -112.7181 92° East 338 389 16,000 -840 Level Albuquerque Center
11:50PM 33.2844 -112.6111 88° East 327 376 14,400 -1,620 Descending Albuquerque Center
11:51PM 33.2889 -112.5033 87° East 309 356 12,700 -1,560 Descending Albuquerque Center
11:52PM 33.2911 -112.4025 88° East 307 353 11,300 -840 Descending Albuquerque Center
11:53PM 33.2950 -112.3086 87° East 288 331 11,000 -600 Descending Albuquerque Center
11:54PM 33.3014 -112.2233 85° East 264 304 10,100 -1,020 Descending Albuquerque Center
11:55PM 33.3086 -112.1239 85° East 256 295 9,000 -900 Descending Albuquerque Center
11:56PM 33.3239 -112.0456 77° East 245 282 8,300 -900 Descending Albuquerque Center
11:57PM 33.3428 -111.9692 73° East 244 281 7,200 -660 Descending Albuquerque Center
11:58PM 33.3453 -111.8956 88° East 221 254 7,000 -600 Descending Albuquerque Center
11:59PM 33.3447 -111.8317 91° East 199 229 6,000 -960 Descending Albuquerque Center
12:00AM 33.3589 -111.7764 73° East 200 230 5,100 -660 Descending Albuquerque Center
12:01AM 33.4067 -111.7914 345° North 183 211 4,700 -660 Descending Albuquerque Center
12:02AM 33.4244 -111.8467 291° West 180 207 3,800 -960 Descending Albuquerque Center
12:03AM 33.4333 -111.9000 281° West 174 200 3,000 -1,020 Descending Phoenix TRACON
12:04AM 33.4333 -111.9500 270° West 143 165 2,000 -1,020 Descending Phoenix TRACON